Time;durP1;ratioP1;P1;durP2;ratioP2;P2;SDS_P1;SDS_P2;PMS_P1;PMS_P2;Temp;Humidity;BMP_temperature;BMP_pressure;BME280_temperature;BME280_humidity;BME280_pressure;Samples;Min_cycle;Max_cycle;Signal;HPM_P1;HPM_P2
2022/10/13 00:00:26;;;;;;;6.53;4.18;;;19.50;60.20;;;;;;5088640;28;45212;-69
2022/10/13 00:02:53;;;;;;;4.57;3.80;;;19.50;60.30;;;;;;5088684;28;45213;-69
2022/10/13 00:05:19;;;;;;;6.07;3.85;;;19.50;60.20;;;;;;5088833;28;45295;-69
2022/10/13 00:07:48;;;;;;;5.40;3.70;;;19.50;60.20;;;;;;5089007;28;45309;-69
2022/10/13 00:10:14;;;;;;;6.13;4.20;;;19.50;60.20;;;;;;5088467;28;46373;-69
2022/10/13 00:12:41;;;;;;;5.32;4.05;;;19.50;60.20;;;;;;5088589;28;45236;-69
2022/10/13 00:15:09;;;;;;;4.70;4.28;;;19.50;60.10;;;;;;5088597;28;45270;-69
2022/10/13 00:17:36;;;;;;;7.40;4.13;;;19.50;60.20;;;;;;5088684;28;45421;-69
2022/10/13 00:20:03;;;;;;;5.78;4.00;;;19.50;60.20;;;;;;5088340;28;45754;-69
2022/10/13 00:22:30;;;;;;;5.97;4.20;;;19.50;60.20;;;;;;5088483;28;45200;-69
2022/10/13 00:24:58;;;;;;;4.10;3.70;;;19.40;60.20;;;;;;5088717;28;45189;-69
2022/10/13 00:27:25;;;;;;;7.90;4.10;;;19.40;60.20;;;;;;5088624;28;45323;-69
2022/10/13 00:29:51;;;;;;;4.90;4.32;;;19.40;60.30;;;;;;5088226;28;45317;-70
2022/10/13 00:32:20;;;;;;;4.25;3.67;;;19.40;60.30;;;;;;5088320;28;45315;-69
2022/10/13 00:34:46;;;;;;;4.80;4.10;;;19.40;60.30;;;;;;5088418;28;45253;-69
2022/10/13 00:37:13;;;;;;;6.40;4.30;;;19.40;60.30;;;;;;5088321;28;45402;-69
2022/10/13 00:39:40;;;;;;;6.43;4.07;;;19.40;60.10;;;;;;5087944;28;46398;-70
2022/10/13 00:42:11;;;;;;;5.50;4.05;;;19.30;60.30;;;;;;5087820;28;45241;-69
2022/10/13 00:45:13;;;;;;;5.15;4.20;;;19.30;60.20;;;;;;5088206;28;45252;-69
2022/10/13 00:47:41;;;;;;;5.55;3.80;;;19.30;60.30;;;;;;5005850;28;45551;-69
2022/10/13 00:50:10;;;;;;;4.97;3.85;;;19.20;60.20;;;;;;5071515;28;46435;-70
2022/10/13 00:52:37;;;;;;;4.60;3.78;;;19.20;60.20;;;;;;5087964;28;45290;-69
2022/10/13 00:55:04;;;;;;;5.28;4.25;;;19.20;60.30;;;;;;5088081;28;45305;-69
2022/10/13 00:57:32;;;;;;;5.35;3.92;;;19.20;60.30;;;;;;5086881;28;45183;-69
2022/10/13 00:59:59;;;;;;;6.03;4.22;;;19.20;60.30;;;;;;5087727;28;45212;-69
2022/10/13 01:02:27;;;;;;;4.35;3.90;;;19.20;61.10;;;;;;5087793;28;45327;-69
2022/10/13 01:04:55;;;;;;;5.90;4.05;;;19.20;60.20;;;;;;5087916;28;45453;-70
2022/10/13 01:07:22;;;;;;;5.38;3.65;;;19.20;60.50;;;;;;5088043;28;45225;-70
2022/10/13 01:09:49;;;;;;;4.97;4.00;;;19.20;60.20;;;;;;5087579;28;46400;-68
2022/10/13 01:12:24;;;;;;;4.75;3.92;;;19.20;60.20;;;;;;5087521;28;45400;-70
2022/10/13 01:14:55;;;;;;;5.00;3.90;;;19.20;60.20;;;;;;5087815;28;45420;-69
2022/10/13 01:17:27;;;;;;;6.50;3.95;;;19.10;60.20;;;;;;5087760;28;45368;-69
2022/10/13 01:20:18;;;;;;;4.82;3.83;;;19.10;60.10;;;;;;5087447;28;46398;-69
2022/10/13 01:22:47;;;;;;;4.75;3.67;;;19.10;60.20;;;;;;5087419;28;45352;-68
2022/10/13 01:25:24;;;;;;;5.18;3.60;;;19.10;60.10;;;;;;5087871;28;45261;-69
2022/10/13 01:27:58;;;;;;;6.40;3.92;;;19.10;60.10;;;;;;5087720;28;45266;-69
2022/10/13 01:30:26;;;;;;;4.07;3.65;;;19.10;60.30;;;;;;5087250;28;46404;-69
2022/10/13 01:33:20;;;;;;;4.47;3.72;;;19.10;60.10;;;;;;5087305;28;45193;-69
2022/10/13 01:35:59;;;;;;;5.47;3.67;;;19.00;60.80;;;;;;5087439;28;45171;-69
2022/10/13 01:38:29;;;;;;;4.55;3.72;;;19.10;60.20;;;;;;5087490;28;45399;-69
2022/10/13 01:41:00;;;;;;;5.00;3.78;;;19.00;60.10;;;;;;5087150;28;45208;-69
2022/10/13 01:43:28;;;;;;;5.00;3.92;;;19.00;60.20;;;;;;5086760;28;45356;-69
2022/10/13 01:45:58;;;;;;;5.35;3.40;;;19.00;60.30;;;;;;5087325;28;45207;-69
2022/10/13 01:48:25;;;;;;;4.50;3.95;;;19.00;60.20;;;;;;5087328;28;45388;-69
2022/10/13 01:50:52;;;;;;;4.68;3.80;;;18.90;60.20;;;;;;5086929;28;46676;-69
2022/10/13 01:53:19;;;;;;;4.25;3.65;;;19.00;60.30;;;;;;5087089;28;45306;-69
2022/10/13 01:55:50;;;;;;;5.15;3.80;;;19.00;60.20;;;;;;5087266;28;45199;-69
2022/10/13 01:58:17;;;;;;;5.22;3.72;;;19.00;60.20;;;;;;5087023;28;45573;-69
2022/10/13 02:00:49;;;;;;;4.78;3.50;;;19.00;60.20;;;;;;5086782;28;45340;-69
2022/10/13 02:03:20;;;;;;;5.80;3.80;;;18.90;60.10;;;;;;5086789;28;45354;-69
2022/10/13 02:05:49;;;;;;;4.10;3.70;;;18.90;60.20;;;;;;5086951;28;45193;-69
2022/10/13 02:08:19;;;;;;;3.40;3.08;;;18.90;60.00;;;;;;5086993;28;45307;-69
2022/10/13 02:10:49;;;;;;;4.15;3.72;;;18.90;60.00;;;;;;5086513;28;46724;-69
2022/10/13 02:13:17;;;;;;;4.95;3.88;;;18.90;60.10;;;;;;5086632;28;45332;-69
2022/10/13 02:15:45;;;;;;;4.10;3.50;;;18.90;60.00;;;;;;5086829;28;45230;-69
2022/10/13 02:18:15;;;;;;;4.00;3.35;;;18.90;60.00;;;;;;5086717;28;45177;-69
2022/10/13 02:20:43;;;;;;;5.75;3.83;;;18.90;60.00;;;;;;5086543;28;46394;-69
2022/10/13 02:23:11;;;;;;;3.88;3.45;;;18.90;60.70;;;;;;5086535;28;45255;-69
2022/10/13 02:25:37;;;;;;;5.13;3.90;;;18.90;59.90;;;;;;5086674;28;45213;-68
2022/10/13 02:28:05;;;;;;;6.18;3.65;;;18.90;59.90;;;;;;5086688;28;45299;-68
2022/10/13 02:30:32;;;;;;;4.25;3.22;;;18.90;60.00;;;;;;5086321;28;45260;-68
2022/10/13 02:32:59;;;;;;;4.53;3.95;;;18.90;59.80;;;;;;5086368;28;45436;-69
2022/10/13 02:35:26;;;;;;;4.43;3.08;;;18.80;59.80;;;;;;5086342;28;45226;-68
2022/10/13 02:37:54;;;;;;;3.97;3.45;;;18.80;59.90;;;;;;5086601;28;45227;-69
2022/10/13 02:40:21;;;;;;;4.93;3.90;;;18.80;59.90;;;;;;5086269;28;45316;-69
2022/10/13 02:42:48;;;;;;;4.85;3.30;;;18.80;60.00;;;;;;5085836;28;45490;-68
2022/10/13 02:45:14;;;;;;;4.15;3.38;;;18.80;59.90;;;;;;5086562;28;45224;-69
2022/10/13 02:47:41;;;;;;;4.82;3.58;;;18.70;59.90;;;;;;5086386;28;45320;-69
2022/10/13 02:50:09;;;;;;;3.42;3.10;;;18.70;59.90;;;;;;5085980;28;46375;-69
2022/10/13 02:52:36;;;;;;;3.88;3.33;;;18.70;59.90;;;;;;5086097;28;45369;-69
2022/10/13 02:55:05;;;;;;;4.28;3.42;;;18.70;60.00;;;;;;5086103;28;45466;-68
2022/10/13 02:57:32;;;;;;;3.55;3.22;;;18.70;60.00;;;;;;5086212;28;45127;-68
2022/10/13 02:59:59;;;;;;;3.75;3.28;;;18.70;60.00;;;;;;5085861;28;45261;-68
2022/10/13 03:02:26;;;;;;;6.68;3.75;;;18.70;59.90;;;;;;5085920;28;45331;-68
2022/10/13 03:04:53;;;;;;;4.20;3.30;;;18.70;59.80;;;;;;5086055;28;45282;-69
2022/10/13 03:07:20;;;;;;;3.88;3.38;;;18.60;59.90;;;;;;5086090;28;45541;-69
2022/10/13 03:09:46;;;;;;;4.50;3.13;;;18.60;59.90;;;;;;5085711;28;45269;-69
2022/10/13 03:12:15;;;;;;;4.57;3.75;;;18.60;59.90;;;;;;5085841;28;45185;-69
2022/10/13 03:14:42;;;;;;;4.72;3.35;;;18.60;59.90;;;;;;5085970;28;45307;-69
2022/10/13 03:17:09;;;;;;;3.75;3.15;;;18.60;60.00;;;;;;5086108;28;45421;-69
2022/10/13 03:19:36;;;;;;;4.13;3.20;;;18.60;60.00;;;;;;5085619;28;46427;-68
2022/10/13 03:22:02;;;;;;;3.60;3.15;;;18.60;59.80;;;;;;5084911;28;45281;-69
2022/10/13 03:24:29;;;;;;;4.32;3.92;;;18.60;60.00;;;;;;5085887;28;45194;-69
2022/10/13 03:26:56;;;;;;;4.68;2.97;;;18.60;59.90;;;;;;5085841;28;45372;-69
2022/10/13 03:29:24;;;;;;;4.05;3.22;;;18.50;59.80;;;;;;5085486;28;46356;-69
2022/10/13 03:31:51;;;;;;;4.25;3.00;;;18.60;59.90;;;;;;5085530;28;45209;-68
2022/10/13 03:34:19;;;;;;;3.50;3.20;;;18.50;59.90;;;;;;5085715;28;45205;-68
2022/10/13 03:36:45;;;;;;;4.35;3.00;;;18.50;59.90;;;;;;5085715;28;45245;-69
2022/10/13 03:39:13;;;;;;;4.07;3.50;;;18.50;59.80;;;;;;5085274;28;46721;-69
2022/10/13 03:41:39;;;;;;;3.08;2.75;;;18.50;59.80;;;;;;5085387;28;45321;-68
2022/10/13 03:44:07;;;;;;;3.25;2.85;;;18.50;59.80;;;;;;5085562;28;45196;-68
2022/10/13 03:46:35;;;;;;;4.47;3.22;;;18.50;59.90;;;;;;5085679;28;45147;-68
2022/10/13 03:49:02;;;;;;;4.00;3.03;;;18.50;59.70;;;;;;5085301;28;45478;-68
2022/10/13 03:51:29;;;;;;;3.10;2.80;;;18.40;59.70;;;;;;5085240;28;45316;-68
2022/10/13 03:53:56;;;;;;;4.60;3.00;;;18.40;59.90;;;;;;5085420;28;45211;-68
2022/10/13 03:56:24;;;;;;;5.65;3.45;;;18.40;59.90;;;;;;5085688;28;45181;-68
2022/10/13 03:58:53;;;;;;;3.40;2.97;;;18.40;59.90;;;;;;5085088;28;46416;-68
2022/10/13 04:01:20;;;;;;;3.75;3.08;;;18.40;59.90;;;;;;5085177;28;45366;-69
2022/10/13 04:03:48;;;;;;;4.53;2.92;;;18.40;59.90;;;;;;5085348;28;45203;-68
2022/10/13 04:06:15;;;;;;;5.00;2.72;;;18.40;59.80;;;;;;5085469;28;45407;-68
2022/10/13 04:08:42;;;;;;;3.30;3.00;;;18.30;59.80;;;;;;5085027;28;45470;-68
2022/10/13 04:11:11;;;;;;;3.45;3.10;;;18.30;59.80;;;;;;5085046;28;45379;-68
2022/10/13 04:13:37;;;;;;;4.03;3.03;;;18.30;60.00;;;;;;5085165;28;45184;-68
2022/10/13 04:16:05;;;;;;;3.83;3.10;;;18.30;59.90;;;;;;5085342;28;45185;-68
2022/10/13 04:18:32;;;;;;;3.15;2.85;;;18.30;59.90;;;;;;5084767;28;46383;-69
2022/10/13 04:21:00;;;;;;;4.18;3.20;;;18.30;59.80;;;;;;5084955;28;45366;-69
2022/10/13 04:23:27;;;;;;;4.88;2.92;;;18.30;59.80;;;;;;5085029;28;45227;-69
2022/10/13 04:25:55;;;;;;;3.53;3.13;;;18.30;59.80;;;;;;5085274;28;45408;-68
2022/10/13 04:28:22;;;;;;;3.35;3.05;;;18.30;59.70;;;;;;5085120;28;45326;-68
2022/10/13 04:30:49;;;;;;;3.40;3.10;;;18.30;59.80;;;;;;5084931;28;45249;-68
2022/10/13 04:33:16;;;;;;;2.85;2.55;;;18.30;59.80;;;;;;5087621;27;45241;-68
2022/10/13 04:35:42;;;;;;;3.08;2.78;;;18.30;59.80;;;;;;5088518;28;45177;-69
2022/10/13 04:38:11;;;;;;;4.10;2.83;;;18.30;59.80;;;;;;5087899;28;45556;-68
2022/10/13 04:40:37;;;;;;;3.00;2.70;;;18.20;59.70;;;;;;5088176;28;45375;-68
2022/10/13 04:43:04;;;;;;;3.75;3.13;;;18.20;59.70;;;;;;5088275;28;45324;-68
2022/10/13 04:45:31;;;;;;;3.63;2.92;;;18.20;59.90;;;;;;5088415;28;45513;-69
2022/10/13 04:47:58;;;;;;;5.10;3.08;;;18.20;59.90;;;;;;5087971;28;46401;-69
2022/10/13 04:50:25;;;;;;;4.75;2.90;;;18.10;59.90;;;;;;5088150;28;45191;-69
2022/10/13 04:52:52;;;;;;;3.38;3.08;;;18.10;59.90;;;;;;5088199;28;45405;-68
2022/10/13 04:55:20;;;;;;;3.67;3.13;;;18.10;59.90;;;;;;5088270;28;45485;-69
2022/10/13 04:57:47;;;;;;;3.38;3.00;;;18.20;59.90;;;;;;5087926;28;45285;-68
2022/10/13 05:00:14;;;;;;;3.30;3.00;;;18.10;59.90;;;;;;5087835;28;45286;-68
2022/10/13 05:02:41;;;;;;;3.72;3.05;;;18.20;59.80;;;;;;5088114;28;45306;-69
2022/10/13 05:05:09;;;;;;;2.85;2.60;;;18.10;59.90;;;;;;5088090;28;45467;-68
2022/10/13 05:07:36;;;;;;;3.65;2.97;;;18.10;59.90;;;;;;5087957;28;46382;-68
2022/10/13 05:10:02;;;;;;;3.42;3.10;;;18.10;59.80;;;;;;5087944;28;45209;-68
2022/10/13 05:12:31;;;;;;;3.83;3.03;;;18.10;59.80;;;;;;5087891;28;45194;-69
2022/10/13 05:14:57;;;;;;;3.40;3.10;;;18.10;59.80;;;;;;5088025;28;45326;-68
2022/10/13 05:17:24;;;;;;;3.78;2.80;;;18.10;59.80;;;;;;5087516;28;45330;-68
2022/10/13 05:19:51;;;;;;;3.28;2.72;;;18.10;59.80;;;;;;5087607;28;45154;-68
2022/10/13 05:22:18;;;;;;;7.18;3.28;;;18.10;59.80;;;;;;5088007;28;45266;-69
2022/10/13 05:24:45;;;;;;;3.72;3.00;;;18.00;59.80;;;;;;5088512;28;45566;-68
2022/10/13 05:27:13;;;;;;;2.75;2.50;;;18.00;59.80;;;;;;5087414;28;45257;-69
2022/10/13 05:29:41;;;;;;;3.20;2.90;;;18.00;59.80;;;;;;5087417;28;45381;-69
2022/10/13 05:32:08;;;;;;;3.35;2.67;;;18.00;59.90;;;;;;5087417;28;45200;-69
2022/10/13 05:34:35;;;;;;;3.78;3.15;;;18.00;59.80;;;;;;5087760;28;45380;-68
2022/10/13 05:37:02;;;;;;;4.43;2.60;;;18.00;59.90;;;;;;5087186;28;46356;-68
2022/10/13 05:39:29;;;;;;;4.28;3.10;;;18.00;59.80;;;;;;5087112;28;45333;-69
2022/10/13 05:41:56;;;;;;;3.22;2.75;;;18.00;59.90;;;;;;5087152;28;45384;-68
2022/10/13 05:44:23;;;;;;;3.35;2.67;;;18.00;59.90;;;;;;5086864;27;45191;-69
2022/10/13 05:46:51;;;;;;;4.00;2.88;;;18.00;59.80;;;;;;5086893;28;46659;-69
2022/10/13 05:49:18;;;;;;;4.10;3.00;;;18.00;59.80;;;;;;5087086;28;45368;-68
2022/10/13 05:51:46;;;;;;;2.65;2.45;;;18.00;59.80;;;;;;5087217;28;45335;-68
2022/10/13 05:54:14;;;;;;;3.30;2.80;;;18.00;59.80;;;;;;5087402;28;45495;-68
2022/10/13 05:56:43;;;;;;;3.08;2.53;;;18.00;59.80;;;;;;5086941;28;46651;-68
2022/10/13 05:59:10;;;;;;;3.35;2.75;;;18.00;59.80;;;;;;5086922;28;45341;-68
2022/10/13 06:01:39;;;;;;;3.05;2.58;;;18.00;59.80;;;;;;5087151;28;45181;-69
2022/10/13 06:04:09;;;;;;;3.03;2.72;;;17.90;60.40;;;;;;5087276;28;45272;-69
2022/10/13 06:06:36;;;;;;;3.33;2.85;;;17.90;59.70;;;;;;5086848;28;46271;-68
2022/10/13 06:09:03;;;;;;;3.45;2.88;;;17.90;59.70;;;;;;5086871;28;45431;-68
2022/10/13 06:11:30;;;;;;;2.97;2.60;;;17.90;59.70;;;;;;5086801;28;45272;-68
2022/10/13 06:13:57;;;;;;;5.05;3.13;;;17.90;59.70;;;;;;5087276;28;45448;-68
2022/10/13 06:16:23;;;;;;;3.30;3.00;;;17.90;59.80;;;;;;5086589;28;45337;-68
2022/10/13 06:18:50;;;;;;;3.00;2.70;;;17.90;60.40;;;;;;5086497;28;45356;-68
2022/10/13 06:21:19;;;;;;;2.58;2.38;;;17.90;59.70;;;;;;5086752;28;45210;-69
2022/10/13 06:23:45;;;;;;;3.30;2.55;;;17.90;59.70;;;;;;5086881;28;45440;-68
2022/10/13 06:26:12;;;;;;;3.45;2.70;;;17.90;59.90;;;;;;5086294;28;46588;-68
2022/10/13 06:28:39;;;;;;;3.63;2.42;;;17.90;59.70;;;;;;5086496;28;45347;-68
2022/10/13 06:31:06;;;;;;;3.03;2.72;;;17.90;59.70;;;;;;5086753;28;45276;-68
2022/10/13 06:33:33;;;;;;;3.38;2.50;;;17.90;59.70;;;;;;5086761;28;45459;-68
2022/10/13 06:36:03;;;;;;;3.20;2.65;;;17.90;59.70;;;;;;5086166;28;46493;-68
2022/10/13 06:38:31;;;;;;;2.40;2.20;;;17.90;59.70;;;;;;5086461;28;45382;-69
2022/10/13 06:41:00;;;;;;;3.22;2.53;;;17.90;59.70;;;;;;5086420;28;45201;-68
2022/10/13 06:43:28;;;;;;;3.17;2.78;;;17.90;59.70;;;;;;5086258;28;45385;-68
2022/10/13 06:45:58;;;;;;;4.82;2.80;;;17.90;59.70;;;;;;5086147;28;47555;-68
2022/10/13 06:48:25;;;;;;;4.03;2.95;;;17.90;59.70;;;;;;5086368;28;45191;-68
2022/10/13 06:50:52;;;;;;;5.28;3.00;;;17.90;59.70;;;;;;5086392;28;45242;-69
2022/10/13 06:53:18;;;;;;;5.50;2.60;;;17.90;59.70;;;;;;5086535;28;45330;-69
2022/10/13 06:55:47;;;;;;;2.75;2.42;;;17.90;59.70;;;;;;5084845;27;46792;-68
2022/10/13 06:58:13;;;;;;;3.00;2.63;;;17.90;59.70;;;;;;5086080;28;45185;-68
2022/10/13 07:00:40;;;;;;;4.28;2.80;;;17.90;59.70;;;;;;5086168;28;45174;-68
2022/10/13 07:03:07;;;;;;;2.78;2.50;;;17.90;59.70;;;;;;5086388;28;45641;-69
2022/10/13 07:05:34;;;;;;;3.10;2.63;;;17.90;59.70;;;;;;5085888;28;46495;-69
2022/10/13 07:08:01;;;;;;;4.32;2.78;;;17.90;59.70;;;;;;5085945;28;45412;-68
2022/10/13 07:10:28;;;;;;;4.05;2.53;;;17.90;59.70;;;;;;5085983;28;45233;-69
2022/10/13 07:12:57;;;;;;;4.05;2.70;;;17.90;59.70;;;;;;5086278;28;45166;-69
2022/10/13 07:15:24;;;;;;;3.65;2.90;;;17.90;59.70;;;;;;5085526;28;45455;-68
2022/10/13 07:17:52;;;;;;;2.80;2.60;;;17.90;59.70;;;;;;5085837;28;45306;-69
2022/10/13 07:20:19;;;;;;;5.85;3.10;;;17.90;59.70;;;;;;5085622;28;45240;-68
2022/10/13 07:22:46;;;;;;;2.95;2.60;;;17.90;59.70;;;;;;5083448;28;45284;-69
2022/10/13 07:25:13;;;;;;;3.08;2.78;;;17.90;59.70;;;;;;5085815;28;45469;-68
2022/10/13 07:27:40;;;;;;;3.67;2.75;;;17.90;59.60;;;;;;5085761;28;45302;-68
2022/10/13 07:30:10;;;;;;;3.88;2.85;;;17.90;59.70;;;;;;5085887;28;45356;-68
2022/10/13 07:32:37;;;;;;;3.22;2.60;;;17.90;59.60;;;;;;5086054;28;45407;-68
2022/10/13 07:35:05;;;;;;;3.05;2.70;;;17.90;59.60;;;;;;5085459;28;46376;-69
2022/10/13 07:37:32;;;;;;;3.08;2.50;;;17.90;59.60;;;;;;5085494;28;45277;-69
2022/10/13 07:39:59;;;;;;;2.70;2.50;;;17.90;59.60;;;;;;5085614;28;45201;-68
2022/10/13 07:42:26;;;;;;;3.15;2.63;;;17.90;59.60;;;;;;5085471;28;45241;-68
2022/10/13 07:44:52;;;;;;;3.20;2.60;;;17.90;59.60;;;;;;5085409;28;46332;-68
2022/10/13 07:47:21;;;;;;;3.80;2.90;;;17.90;59.50;;;;;;5085513;28;45317;-69
2022/10/13 07:49:47;;;;;;;3.10;2.75;;;18.00;59.60;;;;;;5085603;28;45304;-68
2022/10/13 07:52:14;;;;;;;3.53;2.60;;;18.00;59.60;;;;;;5085869;28;45178;-68
2022/10/13 07:54:41;;;;;;;2.70;2.50;;;18.00;59.60;;;;;;5085263;28;46787;-68
2022/10/13 07:57:08;;;;;;;3.13;2.80;;;18.00;59.60;;;;;;5085217;28;45284;-68
2022/10/13 07:59:35;;;;;;;3.50;2.63;;;18.00;59.50;;;;;;5085399;28;45295;-67
2022/10/13 08:02:02;;;;;;;3.90;2.50;;;18.00;59.50;;;;;;5085403;28;45322;-68
2022/10/13 08:04:32;;;;;;;3.55;2.65;;;18.00;59.50;;;;;;5085037;28;45562;-68
2022/10/13 08:06:59;;;;;;;3.40;3.03;;;18.00;59.50;;;;;;5086011;28;45319;-68
2022/10/13 08:09:25;;;;;;;3.15;2.85;;;18.00;59.50;;;;;;5088933;28;45308;-68
2022/10/13 08:11:52;;;;;;;3.33;2.90;;;18.00;59.50;;;;;;5088893;28;45396;-68
2022/10/13 08:14:20;;;;;;;4.25;3.03;;;18.00;59.50;;;;;;5088507;28;46499;-68
2022/10/13 08:16:47;;;;;;;2.90;2.60;;;18.00;59.50;;;;;;5088836;28;45131;-68
2022/10/13 08:19:14;;;;;;;3.60;2.70;;;18.00;59.50;;;;;;5088633;28;45292;-68
2022/10/13 08:21:42;;;;;;;3.17;2.88;;;18.00;59.50;;;;;;5088795;28;45276;-68
2022/10/13 08:24:11;;;;;;;3.05;2.75;;;18.00;59.40;;;;;;5088455;28;46991;-68
2022/10/13 08:26:38;;;;;;;2.40;2.20;;;18.00;59.40;;;;;;5088476;28;45210;-68
2022/10/13 08:29:05;;;;;;;3.67;2.92;;;18.00;59.40;;;;;;5088554;28;45414;-68
2022/10/13 08:31:32;;;;;;;5.28;3.17;;;18.00;59.40;;;;;;5088666;28;45280;-68
2022/10/13 08:33:58;;;;;;;6.70;3.45;;;18.10;59.50;;;;;;5088393;28;46375;-68
2022/10/13 08:36:25;;;;;;;3.58;2.78;;;18.10;59.40;;;;;;5088164;28;45285;-68
2022/10/13 08:38:53;;;;;;;3.95;2.95;;;18.10;59.40;;;;;;5088416;28;45183;-68
2022/10/13 08:41:21;;;;;;;3.33;3.00;;;18.10;59.60;;;;;;5088433;28;45383;-68
2022/10/13 08:43:49;;;;;;;2.45;2.20;;;18.10;59.50;;;;;;5087587;28;48406;-68
2022/10/13 08:46:17;;;;;;;3.70;2.75;;;18.10;59.50;;;;;;5088028;28;45274;-68
2022/10/13 08:48:44;;;;;;;3.10;2.72;;;18.10;59.50;;;;;;5088270;28;45331;-68
2022/10/13 08:51:12;;;;;;;3.28;2.92;;;18.10;59.50;;;;;;5088261;28;45289;-68
2022/10/13 08:53:40;;;;;;;3.47;2.83;;;18.10;59.50;;;;;;5087802;28;45475;-68
2022/10/13 08:56:10;;;;;;;3.70;2.80;;;18.10;59.50;;;;;;5088011;28;45173;-68
2022/10/13 08:58:38;;;;;;;3.17;2.67;;;18.10;59.50;;;;;;5088180;28;45377;-68
2022/10/13 09:01:12;;;;;;;3.03;2.72;;;18.10;59.60;;;;;;5088146;28;45189;-68
2022/10/13 09:03:49;;;;;;;4.35;2.55;;;18.10;59.60;;;;;;5087886;28;45408;-68
2022/10/13 09:06:18;;;;;;;3.35;3.05;;;18.10;59.60;;;;;;5087768;28;45188;-68
2022/10/13 09:08:48;;;;;;;2.92;2.63;;;18.10;59.50;;;;;;5087816;28;45447;-68
2022/10/13 09:11:16;;;;;;;5.63;3.30;;;18.10;59.60;;;;;;5088180;28;45174;-68
2022/10/13 09:13:43;;;;;;;3.10;2.80;;;18.10;59.50;;;;;;5087599;28;45327;-68
2022/10/13 09:16:10;;;;;;;4.07;2.30;;;18.10;59.60;;;;;;5087618;28;45324;-68
2022/10/13 09:18:37;;;;;;;3.63;2.90;;;18.10;59.50;;;;;;5086676;27;45312;-68
2022/10/13 09:21:11;;;;;;;3.22;2.92;;;18.10;59.40;;;;;;5087738;28;45422;-68
2022/10/13 09:23:38;;;;;;;3.70;2.53;;;18.20;59.60;;;;;;5087273;28;46689;-68
2022/10/13 09:26:09;;;;;;;3.63;2.65;;;18.20;59.50;;;;;;5087532;28;45185;-68
2022/10/13 09:28:38;;;;;;;3.10;2.80;;;18.20;59.40;;;;;;5087634;28;45391;-68
2022/10/13 09:31:05;;;;;;;3.83;2.70;;;18.20;59.30;;;;;;5087747;28;45395;-68
2022/10/13 09:33:35;;;;;;;3.10;2.80;;;18.20;59.40;;;;;;5087324;28;47590;-68
2022/10/13 09:36:19;;;;;;;3.53;2.80;;;18.20;59.40;;;;;;5087200;28;45314;-68
2022/10/13 09:39:05;;;;;;;3.33;2.97;;;18.20;59.30;;;;;;5087446;28;45420;-68
2022/10/13 09:41:32;;;;;;;5.47;3.15;;;18.20;59.20;;;;;;5087759;28;45377;-68
2022/10/13 09:44:06;;;;;;;3.63;2.58;;;18.30;59.30;;;;;;5087041;28;46589;-68
2022/10/13 09:46:33;;;;;;;3.00;2.80;;;18.30;59.30;;;;;;5086792;28;45327;-68
2022/10/13 09:49:02;;;;;;;3.03;2.70;;;18.30;59.30;;;;;;5086974;28;45389;-68
2022/10/13 09:51:33;;;;;;;3.65;2.80;;;18.30;59.30;;;;;;5087888;27;45371;-69
2022/10/13 09:54:01;;;;;;;3.00;2.58;;;18.30;59.40;;;;;;5090520;27;47131;-68
2022/10/13 09:56:31;;;;;;;5.68;2.80;;;18.30;60.00;;;;;;5087354;28;45315;-68
2022/10/13 09:59:07;;;;;;;3.45;2.90;;;18.30;59.60;;;;;;5087072;28;45320;-68
2022/10/13 10:01:35;;;;;;;3.95;2.95;;;18.30;59.70;;;;;;5087224;28;45385;-67
2022/10/13 10:04:03;;;;;;;5.07;3.05;;;18.30;59.50;;;;;;5086892;28;45213;-68
2022/10/13 10:06:29;;;;;;;4.25;2.78;;;18.40;59.60;;;;;;5086978;28;45317;-68
2022/10/13 10:08:58;;;;;;;3.20;2.83;;;18.40;59.60;;;;;;5087654;28;45418;-68
2022/10/13 10:11:28;;;;;;;5.72;3.28;;;18.40;59.50;;;;;;5087567;28;45369;-68
2022/10/13 10:13:55;;;;;;;3.55;2.88;;;18.50;59.60;;;;;;5087027;28;45231;-68
2022/10/13 10:16:29;;;;;;;4.32;3.08;;;18.50;59.60;;;;;;5087134;28;45289;-68
2022/10/13 10:18:58;;;;;;;3.85;2.90;;;18.50;59.60;;;;;;5087104;28;45205;-68
2022/10/13 10:21:29;;;;;;;3.33;2.92;;;18.50;59.40;;;;;;5086951;28;45511;-68
2022/10/13 10:23:58;;;;;;;3.83;2.97;;;18.60;59.20;;;;;;5086590;28;45214;-68
2022/10/13 10:26:28;;;;;;;9.10;3.25;;;18.60;59.20;;;;;;5086711;28;45393;-68
2022/10/13 10:29:07;;;;;;;3.78;2.97;;;18.60;59.30;;;;;;5086570;28;45192;-67
2022/10/13 10:31:54;;;;;;;4.05;2.92;;;18.70;59.40;;;;;;5086638;28;45403;-68
2022/10/13 10:34:36;;;;;;;3.63;3.22;;;18.70;59.40;;;;;;5086377;28;47324;-68
2022/10/13 10:37:13;;;;;;;4.53;3.20;;;18.70;59.30;;;;;;5083987;28;45289;-68
2022/10/13 10:39:43;;;;;;;12.32;3.38;;;18.70;59.40;;;;;;5086646;28;45303;-68
2022/10/13 10:42:16;;;;;;;3.78;2.83;;;18.80;59.50;;;;;;5086328;28;45578;-68
2022/10/13 10:44:43;;;;;;;4.90;3.22;;;18.80;59.50;;;;;;5086240;28;46392;-68
2022/10/13 10:47:16;;;;;;;3.97;3.35;;;18.80;59.60;;;;;;5086386;28;45240;-68
2022/10/13 10:49:42;;;;;;;4.10;3.03;;;18.80;59.60;;;;;;5086477;28;45225;-68
2022/10/13 10:52:11;;;;;;;5.63;3.15;;;18.90;59.70;;;;;;5086706;28;45398;-67
2022/10/13 10:54:41;;;;;;;4.85;2.97;;;18.80;59.80;;;;;;5096267;27;46767;-68
2022/10/13 10:57:11;;;;;;;4.95;3.10;;;18.90;59.90;;;;;;5097935;27;45235;-68
2022/10/13 10:59:45;;;;;;;7.45;2.90;;;18.90;59.90;;;;;;5086732;27;45296;-68
2022/10/13 11:02:19;;;;;;;3.72;2.70;;;19.00;59.90;;;;;;5086363;28;45622;-67
2022/10/13 11:04:46;;;;;;;5.03;3.22;;;19.00;60.30;;;;;;5086367;28;46395;-67
2022/10/13 11:07:14;;;;;;;5.97;3.03;;;19.00;60.40;;;;;;5086384;28;45275;-68
2022/10/13 11:10:20;;;;;;;5.43;3.20;;;19.10;60.20;;;;;;5086583;28;45430;-68
2022/10/13 11:13:15;;;;;;;3.47;3.17;;;19.10;60.00;;;;;;5086354;28;45517;-67
2022/10/13 11:15:43;;;;;;;3.60;3.08;;;19.20;59.90;;;;;;5086023;28;46407;-67
2022/10/13 11:18:47;;;;;;;4.18;2.83;;;19.20;60.00;;;;;;5086317;28;45270;-68
2022/10/13 11:21:15;;;;;;;5.55;2.88;;;19.20;59.90;;;;;;5086300;28;45342;-67
2022/10/13 11:23:44;;;;;;;3.10;2.50;;;19.30;60.00;;;;;;5086248;28;45573;-68
2022/10/13 11:26:42;;;;;;;3.90;2.50;;;19.30;59.90;;;;;;5086031;28;46738;-67
2022/10/13 11:29:17;;;;;;;3.53;2.95;;;19.30;59.80;;;;;;5085536;28;45200;-67
2022/10/13 11:31:49;;;;;;;5.28;2.88;;;19.40;59.90;;;;;;5085676;28;45162;-68
2022/10/13 11:34:33;;;;;;;2.78;2.45;;;19.40;60.20;;;;;;5086142;28;45407;-69
2022/10/13 11:37:02;;;;;;;3.97;2.95;;;19.40;59.90;;;;;;5085513;28;45339;-68
2022/10/13 11:40:01;;;;;;;4.43;2.90;;;19.50;60.00;;;;;;5085554;28;45328;-68
2022/10/13 11:42:58;;;;;;;5.22;3.05;;;19.50;59.80;;;;;;5041756;28;45331;-68
2022/10/13 11:45:40;;;;;;;3.20;2.90;;;19.60;59.80;;;;;;5089464;28;45444;-69
2022/10/13 11:48:37;;;;;;;7.68;3.00;;;19.60;59.70;;;;;;5088964;28;45418;-67
2022/10/13 11:51:13;;;;;;;5.70;2.83;;;19.70;60.30;;;;;;5088544;28;45300;-68
2022/10/13 11:53:47;;;;;;;3.40;2.65;;;19.80;59.60;;;;;;5088988;28;45320;-68
2022/10/13 11:56:19;;;;;;;4.13;2.78;;;19.70;59.50;;;;;;5089197;28;45401;-68
2022/10/13 11:58:46;;;;;;;8.10;3.20;;;19.70;59.60;;;;;;5088700;28;46550;-70
2022/10/13 12:01:14;;;;;;;11.05;3.17;;;19.70;60.40;;;;;;5088902;28;45409;-71
2022/10/13 12:03:42;;;;;;;6.78;3.60;;;19.80;60.80;;;;;;5089242;28;45350;-72
2022/10/13 12:06:23;;;;;;;13.23;3.38;;;19.80;61.60;;;;;;5089514;28;45396;-67
2022/10/13 12:08:51;;;;;;;8.43;3.40;;;19.90;60.40;;;;;;5088610;28;45241;-71
2022/10/13 12:11:23;;;;;;;10.27;3.08;;;20.00;60.80;;;;;;5088878;28;45233;-70
2022/10/13 12:13:50;;;;;;;7.65;3.42;;;20.00;59.90;;;;;;5089314;28;45449;-69
2022/10/13 12:16:17;;;;;;;7.88;3.13;;;20.10;59.40;;;;;;5089589;28;45190;-69
2022/10/13 12:18:44;;;;;;;4.57;2.90;;;20.10;59.60;;;;;;5088968;28;45298;-69
2022/10/13 12:21:12;;;;;;;7.82;3.42;;;20.20;59.00;;;;;;5089018;28;45277;-73
2022/10/13 12:23:39;;;;;;;14.50;4.30;;;20.20;59.20;;;;;;5088939;28;45303;-71
2022/10/13 12:26:07;;;;;;;3.95;3.20;;;20.30;59.80;;;;;;5089292;28;45498;-72
2022/10/13 12:28:46;;;;;;;5.95;3.28;;;20.40;58.70;;;;;;5089080;27;45231;-70
2022/10/13 12:31:18;;;;;;;7.20;3.65;;;20.40;59.20;;;;;;5088750;28;45332;-71
2022/10/13 12:33:51;;;;;;;12.73;3.40;;;20.50;59.10;;;;;;5092536;27;45414;-73
2022/10/13 12:36:18;;;;;;;6.82;2.90;;;20.50;59.10;;;;;;5097041;27;45402;-71
2022/10/13 12:38:48;;;;;;;5.50;3.45;;;20.60;59.30;;;;;;5101438;27;46666;-71
2022/10/13 12:41:18;;;;;;;6.35;3.30;;;20.60;58.90;;;;;;5108812;27;45300;-71
2022/10/13 12:43:45;;;;;;;5.03;3.28;;;20.70;59.10;;;;;;5108357;27;45236;-71
2022/10/13 12:46:12;;;;;;;4.80;3.80;;;20.80;59.00;;;;;;5109011;27;45402;-70
2022/10/13 12:48:39;;;;;;;7.05;3.75;;;20.90;59.10;;;;;;5108768;27;46413;-70
2022/10/13 12:51:25;;;;;;;3.35;2.95;;;21.00;59.00;;;;;;5108570;27;45303;-71
2022/10/13 12:53:52;;;;;;;6.68;2.60;;;21.10;57.90;;;;;;5108441;27;45392;-70
2022/10/13 12:56:26;;;;;;;4.78;3.33;;;21.10;57.70;;;;;;5108641;27;45478;-70